Time;durP1;ratioP1;P1;durP2;ratioP2;P2;SDS_P1;SDS_P2;PMS_P1;PMS_P2;Temp;Humidity;BMP_temperature;BMP_pressure;BME280_temperature;BME280_humidity;BME280_pressure;Samples;Min_cycle;Max_cycle;Signal;HPM_P1;HPM_P2
2022/10/03 00:02:10;;;;;;;8.73;6.15;;;;;;;;;;4970760;28;20055;-62
2022/10/03 00:05:01;;;;;;;7.35;6.05;;;;;;;;;;4972854;28;20117;-62
2022/10/03 00:07:27;;;;;;;9.63;5.43;;;;;;;;;;4943137;28;20047;-62
2022/10/03 00:09:56;;;;;;;8.20;6.70;;;;;;;;;;4973123;28;20054;-63
2022/10/03 00:12:46;;;;;;;11.25;6.20;;;;;;;;;;4973110;28;20063;-63
2022/10/03 00:15:15;;;;;;;7.20;5.85;;;;;;;;;;4973238;28;20077;-63
2022/10/03 00:17:57;;;;;;;8.80;5.90;;;;;;;;;;4973426;28;20410;-63
2022/10/03 00:20:44;;;;;;;15.60;6.55;;;;;;;;;;4973435;28;20047;-62
2022/10/03 00:23:14;;;;;;;8.82;5.78;;;;;;;;;;4973253;28;20522;-63
2022/10/03 00:25:59;;;;;;;8.60;6.03;;;;;;;;;;4973345;28;20137;-62
2022/10/03 00:28:42;;;;;;;8.02;6.35;;;;;;;;;;4973315;28;20050;-62
2022/10/03 00:31:13;;;;;;;10.35;6.30;;;;;;;;;;4973059;28;20057;-62
2022/10/03 00:33:52;;;;;;;11.70;6.75;;;;;;;;;;4973121;28;20286;-63
2022/10/03 00:36:19;;;;;;;10.98;5.95;;;;;;;;;;4973221;28;20061;-62
2022/10/03 00:39:04;;;;;;;7.07;5.63;;;;;;;;;;4973289;28;20054;-63
2022/10/03 00:41:36;;;;;;;10.57;6.18;;;;;;;;;;4972958;28;20062;-63
2022/10/03 00:44:22;;;;;;;10.32;6.18;;;;;;;;;;4973335;28;20050;-63
2022/10/03 00:46:58;;;;;;;9.15;5.80;;;;;;;;;;4972892;28;20086;-62
2022/10/03 00:49:30;;;;;;;7.80;5.85;;;;;;;;;;4973176;28;20515;-62
2022/10/03 00:51:59;;;;;;;8.52;6.00;;;;;;;;;;4972814;28;20487;-62
2022/10/03 00:54:41;;;;;;;7.40;5.93;;;;;;;;;;4972740;28;20415;-62
2022/10/03 00:57:13;;;;;;;8.00;5.57;;;;;;;;;;4972794;28;20057;-62
2022/10/03 00:59:59;;;;;;;13.73;6.88;;;;;;;;;;4972987;28;20054;-63
2022/10/03 01:02:28;;;;;;;8.18;6.43;;;;;;;;;;4972668;28;20551;-62
2022/10/03 01:05:15;;;;;;;8.38;5.97;;;;;;;;;;4975387;28;20502;-63
2022/10/03 01:07:41;;;;;;;6.90;5.50;;;;;;;;;;4976551;28;20096;-62
2022/10/03 01:10:18;;;;;;;7.70;5.43;;;;;;;;;;4976408;28;20058;-63
2022/10/03 01:12:54;;;;;;;9.63;5.88;;;;;;;;;;4976464;28;20058;-62
2022/10/03 01:15:29;;;;;;;7.25;5.50;;;;;;;;;;4976474;28;20047;-62
2022/10/03 01:18:11;;;;;;;7.57;6.00;;;;;;;;;;4976639;28;20073;-62
2022/10/03 01:20:57;;;;;;;9.43;5.78;;;;;;;;;;4976397;28;20061;-62
2022/10/03 01:23:56;;;;;;;7.95;5.88;;;;;;;;;;4976443;28;20062;-62
2022/10/03 01:26:22;;;;;;;9.70;5.78;;;;;;;;;;4945325;28;20066;-62
2022/10/03 01:31:49;;;;;;;9.07;5.88;;;;;;;;;;4976488;28;20053;-62
2022/10/03 01:34:27;;;;;;;9.80;5.68;;;;;;;;;;4976057;28;20557;-62
2022/10/03 01:37:10;;;;;;;8.60;5.20;;;;;;;;;;4976251;28;20057;-62
2022/10/03 01:39:49;;;;;;;7.65;5.63;;;;;;;;;;4976339;28;20089;-63
2022/10/03 01:42:30;;;;;;;7.22;5.45;;;;;;;;;;4975902;28;20042;-62
2022/10/03 01:45:14;;;;;;;8.88;5.07;;;;;;;;;;4976527;28;20058;-62
2022/10/03 01:47:40;;;;;;;7.53;5.50;;;;;;;;;;4976142;28;20062;-63
2022/10/03 01:50:14;;;;;;;5.88;5.18;;;;;;;;;;4976111;28;20503;-62
2022/10/03 01:52:41;;;;;;;11.38;6.05;;;;;;;;;;4975956;28;20059;-62
2022/10/03 01:55:07;;;;;;;7.55;5.07;;;;;;;;;;4975813;28;20073;-62
2022/10/03 01:57:37;;;;;;;7.50;5.05;;;;;;;;;;4975605;28;20514;-63
2022/10/03 02:00:08;;;;;;;9.40;5.28;;;;;;;;;;4975590;28;20131;-62
2022/10/03 02:02:38;;;;;;;6.72;5.32;;;;;;;;;;4975715;28;20414;-62
2022/10/03 02:05:04;;;;;;;8.77;5.38;;;;;;;;;;4975802;28;20062;-62
2022/10/03 02:07:54;;;;;;;7.35;4.70;;;;;;;;;;4975519;28;20054;-62
2022/10/03 02:10:39;;;;;;;8.35;5.13;;;;;;;;;;4970266;28;20057;-63
2022/10/03 02:13:22;;;;;;;9.15;5.47;;;;;;;;;;4975458;28;20054;-62
2022/10/03 02:16:03;;;;;;;8.02;5.20;;;;;;;;;;4974156;28;20467;-62
2022/10/03 02:18:50;;;;;;;6.93;5.20;;;;;;;;;;4975318;28;20051;-62
2022/10/03 02:21:17;;;;;;;7.38;5.22;;;;;;;;;;4975137;28;20066;-62
2022/10/03 02:23:44;;;;;;;8.10;4.50;;;;;;;;;;4975296;28;20055;-63
2022/10/03 02:26:30;;;;;;;6.53;5.07;;;;;;;;;;4975510;28;20406;-63
2022/10/03 02:28:56;;;;;;;8.70;5.30;;;;;;;;;;4975314;28;20055;-63
2022/10/03 02:31:22;;;;;;;6.97;4.53;;;;;;;;;;4975495;28;20062;-62
2022/10/03 02:34:01;;;;;;;5.85;4.68;;;;;;;;;;4975150;28;20093;-62
2022/10/03 02:36:47;;;;;;;4.82;4.35;;;;;;;;;;4974978;28;20050;-63
2022/10/03 02:39:16;;;;;;;8.23;4.55;;;;;;;;;;4974868;28;20076;-62
2022/10/03 02:42:03;;;;;;;8.48;4.68;;;;;;;;;;4975291;28;20051;-62
2022/10/03 02:44:53;;;;;;;8.82;4.68;;;;;;;;;;4975023;28;20490;-62
2022/10/03 02:47:31;;;;;;;5.63;4.65;;;;;;;;;;4974891;28;20065;-62
2022/10/03 02:50:04;;;;;;;7.97;4.60;;;;;;;;;;4974920;28;20427;-63
2022/10/03 02:52:48;;;;;;;6.97;4.60;;;;;;;;;;4974753;28;20057;-63
2022/10/03 02:55:33;;;;;;;7.53;4.90;;;;;;;;;;4974849;28;20407;-62
2022/10/03 02:58:14;;;;;;;7.03;4.40;;;;;;;;;;4974617;28;20054;-62
2022/10/03 03:00:53;;;;;;;6.10;4.75;;;;;;;;;;4974855;28;20047;-62
2022/10/03 03:03:29;;;;;;;6.30;4.20;;;;;;;;;;4974549;28;20047;-62
2022/10/03 03:05:56;;;;;;;5.40;4.40;;;;;;;;;;4974527;28;20081;-63
2022/10/03 03:08:40;;;;;;;8.10;4.75;;;;;;;;;;4974608;28;20062;-62
2022/10/03 03:11:28;;;;;;;8.07;4.20;;;;;;;;;;4974483;28;20483;-62
2022/10/03 03:14:08;;;;;;;7.57;4.50;;;;;;;;;;4974452;28;20053;-63
2022/10/03 03:16:53;;;;;;;8.57;4.60;;;;;;;;;;4974502;28;20047;-62
2022/10/03 03:19:27;;;;;;;8.02;4.60;;;;;;;;;;4974252;28;20054;-62
2022/10/03 03:22:05;;;;;;;5.78;3.83;;;;;;;;;;4974587;28;20051;-62
2022/10/03 03:24:31;;;;;;;6.40;4.63;;;;;;;;;;4972959;28;20051;-63
2022/10/03 03:27:12;;;;;;;4.32;3.90;;;;;;;;;;4973531;28;20058;-62
2022/10/03 03:29:38;;;;;;;7.60;4.07;;;;;;;;;;4974315;28;20061;-62
2022/10/03 03:32:14;;;;;;;8.05;4.32;;;;;;;;;;4973925;28;20057;-63
2022/10/03 03:34:50;;;;;;;5.78;4.10;;;;;;;;;;4973971;28;20503;-62
2022/10/03 03:37:25;;;;;;;5.05;4.03;;;;;;;;;;4973815;28;20053;-63
2022/10/03 03:40:12;;;;;;;7.45;4.18;;;;;;;;;;4973856;28;20745;-62
2022/10/03 03:42:51;;;;;;;10.60;5.03;;;;;;;;;;4948161;28;20410;-62
2022/10/03 03:45:35;;;;;;;5.32;4.07;;;;;;;;;;4973896;28;20051;-62
2022/10/03 03:48:04;;;;;;;5.80;3.88;;;;;;;;;;4973771;28;20078;-62
2022/10/03 03:50:34;;;;;;;6.13;3.55;;;;;;;;;;4973993;28;20051;-62
2022/10/03 03:53:09;;;;;;;5.60;3.88;;;;;;;;;;4973608;28;20055;-63
2022/10/03 03:55:59;;;;;;;6.43;3.58;;;;;;;;;;4973549;28;20526;-62
2022/10/03 03:58:32;;;;;;;6.38;4.07;;;;;;;;;;4973611;28;20065;-62
2022/10/03 04:00:58;;;;;;;4.95;3.70;;;;;;;;;;4973671;28;20050;-62
2022/10/03 04:03:45;;;;;;;8.15;4.20;;;;;;;;;;4973588;28;20058;-62
2022/10/03 04:06:16;;;;;;;4.53;3.65;;;;;;;;;;4946064;28;20069;-62
2022/10/03 04:09:01;;;;;;;6.72;3.92;;;;;;;;;;4973427;28;20059;-62
2022/10/03 04:11:48;;;;;;;6.28;3.70;;;;;;;;;;4973461;28;20054;-63
2022/10/03 04:14:17;;;;;;;4.57;3.95;;;;;;;;;;4973348;28;20072;-62
2022/10/03 04:19:55;;;;;;;5.47;4.68;;;;;;;;;;4973113;28;20051;-62
2022/10/03 04:22:46;;;;;;;8.40;4.63;;;;;;;;;;4973241;28;20051;-62
2022/10/03 04:25:23;;;;;;;5.65;4.78;;;;;;;;;;4973264;28;20065;-62
2022/10/03 04:27:58;;;;;;;5.97;4.28;;;;;;;;;;4973077;28;20055;-62
2022/10/03 04:30:37;;;;;;;5.80;4.18;;;;;;;;;;4973066;28;20086;-63
2022/10/03 04:33:06;;;;;;;6.38;4.40;;;;;;;;;;4972952;28;20070;-62
2022/10/03 04:35:45;;;;;;;9.63;5.32;;;;;;;;;;4972980;28;20544;-62
2022/10/03 04:38:37;;;;;;;6.55;3.85;;;;;;;;;;4972553;28;20062;-62
2022/10/03 04:41:14;;;;;;;5.80;3.85;;;;;;;;;;4973009;28;20058;-62
2022/10/03 04:43:42;;;;;;;;;;;;;;;;;;4973379;28;20051;-62
2022/10/03 04:46:09;;;;;;;;;;;;;;;;;;4973214;28;20384;-62
2022/10/03 04:48:39;;;;;;;4.68;3.95;;;;;;;;;;4973137;28;19980;-62
2022/10/03 04:51:25;;;;;;;5.30;3.80;;;;;;;;;;4973021;28;20051;-62
2022/10/03 04:53:51;;;;;;;5.60;3.78;;;;;;;;;;4973126;28;20061;-62
2022/10/03 04:56:21;;;;;;;6.22;3.50;;;;;;;;;;4972736;28;20043;-62
2022/10/03 04:58:50;;;;;;;5.57;3.60;;;;;;;;;;4972861;28;20055;-62
2022/10/03 05:01:23;;;;;;;5.15;3.47;;;;;;;;;;4972788;28;20043;-62
2022/10/03 05:03:59;;;;;;;6.22;4.00;;;;;;;;;;4972893;28;20062;-62
2022/10/03 05:06:47;;;;;;;6.20;3.53;;;;;;;;;;4972943;28;20050;-63
2022/10/03 05:09:14;;;;;;;7.85;3.95;;;;;;;;;;4972759;28;20054;-63
2022/10/03 05:11:49;;;;;;;5.18;3.72;;;;;;;;;;4972540;28;20054;-62
2022/10/03 05:14:25;;;;;;;5.07;3.58;;;;;;;;;;4972779;28;20047;-62
2022/10/03 05:17:05;;;;;;;7.15;5.13;;;;;;;;;;4972643;28;20051;-63
2022/10/03 05:19:37;;;;;;;9.05;6.70;;;;;;;;;;4972682;28;20047;-63
2022/10/03 05:22:12;;;;;;;9.20;6.15;;;;;;;;;;4972575;28;20499;-62
2022/10/03 05:24:50;;;;;;;10.63;6.15;;;;;;;;;;4972611;28;20051;-62
2022/10/03 05:27:32;;;;;;;7.28;6.30;;;;;;;;;;4972559;28;20051;-62
2022/10/03 05:30:07;;;;;;;8.45;5.68;;;;;;;;;;4972459;28;20078;-62
2022/10/03 05:33:03;;;;;;;8.75;4.93;;;;;;;;;;4972338;28;20055;-62
2022/10/03 05:35:48;;;;;;;7.07;4.60;;;;;;;;;;4922545;28;20546;-63
2022/10/03 05:38:14;;;;;;;5.25;4.20;;;;;;;;;;4972666;28;20051;-62
2022/10/03 05:41:01;;;;;;;5.90;3.92;;;;;;;;;;4972357;28;20054;-63
2022/10/03 05:43:27;;;;;;;7.85;4.60;;;;;;;;;;4972407;28;20057;-62
2022/10/03 05:46:06;;;;;;;8.77;4.88;;;;;;;;;;4972344;28;20055;-62
2022/10/03 05:49:00;;;;;;;6.57;4.32;;;;;;;;;;4972644;28;20054;-62
2022/10/03 05:51:32;;;;;;;6.88;4.50;;;;;;;;;;4974743;28;20061;-62
2022/10/03 05:54:04;;;;;;;5.90;5.30;;;;;;;;;;4975582;28;20050;-63
2022/10/03 05:56:50;;;;;;;7.53;5.18;;;;;;;;;;4975201;28;20042;-62
2022/10/03 05:59:25;;;;;;;7.90;5.93;;;;;;;;;;4974093;28;20054;-63
2022/10/03 06:01:57;;;;;;;6.38;5.32;;;;;;;;;;4974728;28;20042;-63
2022/10/03 06:04:43;;;;;;;6.93;5.57;;;;;;;;;;4974908;28;20129;-63
2022/10/03 06:07:33;;;;;;;10.05;5.85;;;;;;;;;;4975812;28;20058;-62
2022/10/03 06:10:05;;;;;;;9.88;6.05;;;;;;;;;;4954696;28;20127;-62
2022/10/03 06:12:31;;;;;;;8.90;5.68;;;;;;;;;;4975510;28;20059;-63
2022/10/03 06:15:07;;;;;;;7.03;5.60;;;;;;;;;;4975347;28;20043;-62
2022/10/03 06:17:37;;;;;;;9.15;5.90;;;;;;;;;;4975231;28;20061;-62
2022/10/03 06:20:11;;;;;;;8.88;5.18;;;;;;;;;;4975196;28;20126;-62
2022/10/03 06:22:56;;;;;;;11.02;5.68;;;;;;;;;;4975036;28;20058;-62
2022/10/03 06:25:36;;;;;;;8.93;6.22;;;;;;;;;;4974195;28;20105;-63
2022/10/03 06:28:03;;;;;;;9.23;6.15;;;;;;;;;;4975151;28;20057;-64
2022/10/03 06:30:48;;;;;;;7.90;5.47;;;;;;;;;;4974968;28;20054;-63
2022/10/03 06:33:33;;;;;;;10.18;6.07;;;;;;;;;;4974900;28;20443;-63
2022/10/03 06:36:23;;;;;;;8.70;5.45;;;;;;;;;;4971668;28;20057;-63
2022/10/03 06:39:08;;;;;;;5.78;5.15;;;;;;;;;;4973655;28;20414;-63
2022/10/03 06:41:47;;;;;;;9.60;5.45;;;;;;;;;;4974634;28;20518;-63
2022/10/03 06:44:35;;;;;;;9.82;6.13;;;;;;;;;;4974253;28;20135;-63
2022/10/03 06:47:10;;;;;;;7.28;5.85;;;;;;;;;;4974278;28;20139;-63
2022/10/03 06:49:56;;;;;;;6.28;5.57;;;;;;;;;;4974865;28;20054;-63
2022/10/03 06:52:34;;;;;;;9.35;5.93;;;;;;;;;;4974079;28;20043;-63
2022/10/03 06:55:04;;;;;;;8.77;6.32;;;;;;;;;;4962785;28;20047;-63
2022/10/03 06:57:36;;;;;;;10.35;5.43;;;;;;;;;;4974434;28;20043;-62
2022/10/03 07:00:09;;;;;;;11.07;6.78;;;;;;;;;;4974871;28;20051;-63
2022/10/03 07:02:47;;;;;;;10.13;6.43;;;;;;;;;;4974016;28;20058;-63
2022/10/03 07:05:19;;;;;;;9.75;5.80;;;;;;;;;;4974928;28;20065;-63
2022/10/03 07:07:55;;;;;;;9.27;6.10;;;;;;;;;;4974524;28;20070;-63
2022/10/03 07:10:40;;;;;;;7.32;5.68;;;;;;;;;;4974335;28;20050;-64
2022/10/03 07:13:27;;;;;;;8.43;5.78;;;;;;;;;;4973569;28;20047;-63
2022/10/03 07:15:56;;;;;;;7.13;5.75;;;;;;;;;;4973910;28;20066;-62
2022/10/03 07:18:43;;;;;;;8.10;5.78;;;;;;;;;;4971793;28;20487;-62
2022/10/03 07:21:13;;;;;;;8.77;6.03;;;;;;;;;;4974260;28;20051;-63
2022/10/03 07:24:02;;;;;;;10.32;5.95;;;;;;;;;;4974275;28;20124;-63
2022/10/03 07:26:34;;;;;;;10.30;6.07;;;;;;;;;;4974197;28;20053;-63
2022/10/03 07:29:00;;;;;;;10.25;6.38;;;;;;;;;;4974049;28;20065;-63
2022/10/03 07:31:42;;;;;;;10.32;6.30;;;;;;;;;;4974451;28;20061;-63
2022/10/03 07:34:24;;;;;;;6.93;6.22;;;;;;;;;;4973491;28;20578;-63
2022/10/03 07:39:48;;;;;;;9.20;5.70;;;;;;;;;;4967679;28;20054;-63
2022/10/03 07:42:14;;;;;;;9.13;6.28;;;;;;;;;;4973546;28;20094;-63
2022/10/03 07:44:50;;;;;;;9.23;5.35;;;;;;;;;;4974093;28;20054;-62
2022/10/03 07:47:28;;;;;;;11.05;6.07;;;;;;;;;;4973649;28;20050;-63
2022/10/03 07:49:58;;;;;;;8.85;5.63;;;;;;;;;;4973926;28;20058;-62
2022/10/03 07:52:28;;;;;;;10.15;5.38;;;;;;;;;;4973575;28;20515;-63
2022/10/03 07:54:57;;;;;;;9.55;5.10;;;;;;;;;;4973385;28;20073;-63
2022/10/03 07:57:50;;;;;;;9.65;5.35;;;;;;;;;;4972480;28;20047;-64
2022/10/03 08:00:21;;;;;;;9.32;5.00;;;;;;;;;;4963957;28;20046;-62
2022/10/03 08:02:54;;;;;;;9.82;5.22;;;;;;;;;;4972951;28;20043;-61
2022/10/03 08:05:33;;;;;;;10.95;5.40;;;;;;;;;;4971102;28;20117;-63
2022/10/03 08:08:02;;;;;;;6.60;4.72;;;;;;;;;;4972801;28;20050;-63
2022/10/03 08:10:29;;;;;;;6.22;4.15;;;;;;;;;;4972792;28;20060;-63
2022/10/03 08:13:01;;;;;;;8.65;4.82;;;;;;;;;;4972648;28;20069;-63
2022/10/03 08:15:42;;;;;;;8.18;4.30;;;;;;;;;;4972100;28;20046;-63
2022/10/03 08:18:29;;;;;;;7.63;4.38;;;;;;;;;;4972314;28;20130;-63
2022/10/03 08:21:00;;;;;;;6.50;3.87;;;;;;;;;;4972260;28;20046;-63
2022/10/03 08:23:26;;;;;;;9.55;4.45;;;;;;;;;;4972349;28;20043;-63
2022/10/03 08:26:14;;;;;;;8.43;4.38;;;;;;;;;;4972092;28;20061;-63
2022/10/03 08:28:52;;;;;;;6.82;4.63;;;;;;;;;;4972147;28;20476;-63
2022/10/03 08:31:35;;;;;;;9.15;4.45;;;;;;;;;;4972284;28;20055;-63
2022/10/03 08:34:21;;;;;;;7.90;4.03;;;;;;;;;;4960549;28;20058;-62
2022/10/03 08:36:53;;;;;;;10.30;4.05;;;;;;;;;;4970644;28;20087;-63
2022/10/03 08:39:19;;;;;;;6.45;3.83;;;;;;;;;;4972444;28;20509;-63
2022/10/03 08:42:05;;;;;;;8.15;3.78;;;;;;;;;;4972612;28;20070;-63
2022/10/03 08:44:38;;;;;;;7.90;3.83;;;;;;;;;;4972454;28;20046;-63
2022/10/03 08:47:17;;;;;;;7.78;3.72;;;;;;;;;;4972629;28;20054;-63
2022/10/03 08:49:43;;;;;;;7.95;3.90;;;;;;;;;;4972154;28;20051;-63
2022/10/03 08:52:09;;;;;;;6.18;3.92;;;;;;;;;;4972244;28;20042;-64
2022/10/03 08:54:36;;;;;;;6.95;3.47;;;;;;;;;;4972538;28;20050;-63
2022/10/03 08:57:14;;;;;;;7.50;3.67;;;;;;;;;;4972576;28;20043;-63
2022/10/03 08:59:59;;;;;;;9.27;4.22;;;;;;;;;;4971820;28;20046;-63
2022/10/03 09:02:50;;;;;;;5.85;3.63;;;;;;;;;;4970049;28;20428;-63
2022/10/03 09:05:37;;;;;;;7.75;3.47;;;;;;;;;;4972180;28;20066;-63
2022/10/03 09:08:03;;;;;;;5.47;3.40;;;;;;;;;;4971964;28;20054;-63
2022/10/03 09:10:48;;;;;;;6.67;3.13;;;;;;;;;;4972355;28;20058;-63
2022/10/03 09:13:20;;;;;;;9.32;3.63;;;;;;;;;;4972637;28;20065;-64
2022/10/03 09:16:19;;;;;;;9.68;3.45;;;;;;;;;;4972107;28;20388;-63
2022/10/03 09:18:46;;;;;;;10.90;3.40;;;;;;;;;;4963017;28;20050;-63
2022/10/03 09:21:25;;;;;;;10.10;3.73;;;;;;;;;;4972303;28;20046;-63
2022/10/03 09:23:55;;;;;;;7.78;3.55;;;;;;;;;;4972032;28;20043;-63
2022/10/03 09:26:41;;;;;;;7.18;3.65;;;;;;;;;;4974942;28;20058;-64
2022/10/03 09:29:07;;;;;;;9.18;3.85;;;;;;;;;;4976267;28;20059;-64
2022/10/03 09:31:52;;;;;;;7.10;3.58;;;;;;;;;;4975672;28;20411;-63
2022/10/03 09:34:22;;;;;;;8.48;4.25;;;;;;;;;;4975689;28;20051;-63
2022/10/03 09:37:07;;;;;;;8.98;3.95;;;;;;;;;;4973639;28;20043;-63
2022/10/03 09:39:55;;;;;;;11.43;4.30;;;;;;;;;;4975853;28;20156;-63
2022/10/03 09:42:21;;;;;;;6.95;3.78;;;;;;;;;;4975588;28;20043;-62
2022/10/03 09:45:13;;;;;;;8.52;4.22;;;;;;;;;;4975323;28;20042;-63
2022/10/03 09:47:57;;;;;;;9.18;4.20;;;;;;;;;;4975090;28;20047;-63
2022/10/03 09:50:43;;;;;;;10.88;4.35;;;;;;;;;;4975740;28;20061;-63
2022/10/03 09:53:10;;;;;;;7.30;3.40;;;;;;;;;;4975481;28;20054;-63
2022/10/03 09:55:54;;;;;;;6.88;3.25;;;;;;;;;;4975002;28;20055;-63
2022/10/03 09:58:32;;;;;;;7.97;3.03;;;;;;;;;;4975589;28;20043;-63
2022/10/03 10:01:17;;;;;;;8.07;3.15;;;;;;;;;;4975107;28;20488;-63
2022/10/03 10:03:59;;;;;;;8.93;3.25;;;;;;;;;;4974934;28;20042;-63
2022/10/03 10:06:25;;;;;;;7.95;4.07;;;;;;;;;;4975265;28;20443;-63
2022/10/03 10:08:55;;;;;;;8.38;3.75;;;;;;;;;;4975160;28;20468;-63
2022/10/03 10:11:39;;;;;;;7.05;4.65;;;;;;;;;;4974746;28;20066;-63
2022/10/03 10:14:19;;;;;;;6.90;4.00;;;;;;;;;;4974727;28;20057;-62
2022/10/03 10:17:08;;;;;;;7.35;4.07;;;;;;;;;;4965754;28;20048;-63
2022/10/03 10:19:40;;;;;;;10.82;4.10;;;;;;;;;;4938101;28;20051;-63
2022/10/03 10:22:07;;;;;;;7.93;3.22;;;;;;;;;;4955000;28;20054;-63
2022/10/03 10:24:36;;;;;;;5.50;2.80;;;;;;;;;;4965456;28;20047;-63
2022/10/03 10:27:21;;;;;;;11.60;2.67;;;;;;;;;;4969987;28;20293;-63
2022/10/03 10:29:50;;;;;;;5.90;2.72;;;;;;;;;;4968988;28;20050;-63
2022/10/03 10:32:40;;;;;;;8.80;2.67;;;;;;;;;;4974547;28;20538;-63
2022/10/03 10:35:21;;;;;;;5.10;2.10;;;;;;;;;;4969676;28;20046;-64
2022/10/03 10:37:53;;;;;;;9.40;2.42;;;;;;;;;;4973198;28;20053;-62
2022/10/03 10:40:25;;;;;;;5.65;2.03;;;;;;;;;;4974513;28;20054;-63
2022/10/03 10:43:05;;;;;;;9.52;2.47;;;;;;;;;;4974637;28;20051;-64
2022/10/03 10:45:31;;;;;;;7.53;2.38;;;;;;;;;;4974741;28;20050;-64
2022/10/03 10:48:10;;;;;;;7.53;2.40;;;;;;;;;;4974400;28;20043;-63
2022/10/03 10:50:45;;;;;;;5.15;2.22;;;;;;;;;;4974377;28;20063;-64
2022/10/03 10:53:36;;;;;;;7.15;2.25;;;;;;;;;;4974534;28;20043;-63
2022/10/03 10:56:08;;;;;;;9.00;2.42;;;;;;;;;;4974293;28;20067;-64
2022/10/03 10:58:56;;;;;;;4.95;2.10;;;;;;;;;;4974497;28;20380;-64
2022/10/03 11:01:32;;;;;;;6.20;2.00;;;;;;;;;;4974247;28;20126;-64
2022/10/03 11:04:00;;;;;;;6.70;2.05;;;;;;;;;;4960341;28;20059;-63
2022/10/03 11:06:41;;;;;;;8.23;2.25;;;;;;;;;;4959946;28;20066;-63
2022/10/03 11:09:23;;;;;;;6.43;1.80;;;;;;;;;;4962600;28;20050;-63
2022/10/03 11:12:02;;;;;;;9.02;2.35;;;;;;;;;;4973724;28;20062;-63
2022/10/03 11:14:37;;;;;;;7.00;2.20;;;;;;;;;;4974035;28;20053;-64
2022/10/03 11:17:10;;;;;;;7.07;2.10;;;;;;;;;;4973991;28;20058;-64
2022/10/03 11:19:55;;;;;;;3.50;1.17;;;;;;;;;;4965379;28;20051;-64
2022/10/03 11:22:37;;;;;;;4.00;1.23;;;;;;;;;;4970913;28;20065;-64
2022/10/03 11:25:03;;;;;;;4.28;1.30;;;;;;;;;;4974029;28;20058;-64
2022/10/03 11:27:32;;;;;;;5.17;1.30;;;;;;;;;;4973755;28;20053;-64
2022/10/03 11:30:17;;;;;;;6.38;1.75;;;;;;;;;;4973647;28;20058;-64
2022/10/03 11:33:07;;;;;;;4.63;1.20;;;;;;;;;;4973515;28;20046;-64
2022/10/03 11:35:56;;;;;;;4.93;1.55;;;;;;;;;;4966276;28;20046;-64
2022/10/03 11:38:25;;;;;;;3.28;1.08;;;;;;;;;;4944423;28;20057;-64
2022/10/03 11:41:00;;;;;;;4.68;1.27;;;;;;;;;;4972372;28;20050;-64
2022/10/03 11:43:46;;;;;;;3.88;1.40;;;;;;;;;;4973371;28;20050;-64
2022/10/03 11:46:27;;;;;;;5.03;1.50;;;;;;;;;;4969559;28;20059;-64
2022/10/03 11:48:57;;;;;;;4.90;1.25;;;;;;;;;;4967556;28;20123;-64
2022/10/03 11:51:44;;;;;;;5.03;1.35;;;;;;;;;;4963436;28;20069;-64
2022/10/03 11:54:33;;;;;;;4.55;1.30;;;;;;;;;;4959823;28;20050;-65
2022/10/03 11:57:04;;;;;;;7.95;1.83;;;;;;;;;;4972844;28;20053;-65
2022/10/03 11:59:33;;;;;;;6.35;1.70;;;;;;;;;;4972552;28;20415;-65
2022/10/03 12:02:13;;;;;;;6.55;1.45;;;;;;;;;;4973274;28;20708;-65
2022/10/03 12:05:00;;;;;;;7.28;1.63;;;;;;;;;;4973360;28;20561;-65
2022/10/03 12:10:29;;;;;;;5.53;1.30;;;;;;;;;;4973500;28;20150;-65
2022/10/03 12:12:56;;;;;;;5.13;1.58;;;;;;;;;;4973762;28;20059;-65
2022/10/03 12:15:22;;;;;;;4.93;1.75;;;;;;;;;;4973349;28;20589;-65
2022/10/03 12:18:03;;;;;;;4.03;1.60;;;;;;;;;;4973253;28;20059;-65
2022/10/03 12:20:51;;;;;;;5.22;1.80;;;;;;;;;;4973336;28;20061;-65
2022/10/03 12:23:26;;;;;;;4.35;1.40;;;;;;;;;;4973230;28;20066;-65
2022/10/03 12:25:54;;;;;;;3.85;1.35;;;;;;;;;;4973183;28;20055;-65
2022/10/03 12:28:23;;;;;;;4.72;1.63;;;;;;;;;;4973162;28;20055;-65
2022/10/03 12:30:54;;;;;;;5.93;1.67;;;;;;;;;;4973312;28;20137;-65
2022/10/03 12:33:20;;;;;;;7.47;2.55;;;;;;;;;;4973136;28;20170;-65
2022/10/03 12:35:52;;;;;;;5.72;1.80;;;;;;;;;;4973273;28;20050;-64
2022/10/03 12:38:19;;;;;;;4.50;1.52;;;;;;;;;;4972976;28;20051;-65
2022/10/03 12:40:50;;;;;;;5.57;1.48;;;;;;;;;;4973044;28;20061;-65
2022/10/03 12:43:17;;;;;;;5.25;1.70;;;;;;;;;;4972949;28;20419;-65
2022/10/03 12:46:01;;;;;;;5.05;1.38;;;;;;;;;;4973158;28;20419;-65
2022/10/03 12:48:47;;;;;;;4.65;1.70;;;;;;;;;;4973121;28;20086;-65
2022/10/03 12:51:13;;;;;;;2.83;1.40;;;;;;;;;;4973190;28;20074;-65
2022/10/03 12:53:47;;;;;;;4.22;2.03;;;;;;;;;;4972588;28;20423;-65
2022/10/03 12:56:17;;;;;;;5.05;1.52;;;;;;;;;;4972830;28;20055;-65
2022/10/03 12:58:46;;;;;;;7.10;2.47;;;;;;;;;;4959517;28;20051;-65
2022/10/03 13:01:16;;;;;;;6.13;2.20;;;;;;;;;;4959930;28;20056;-65
2022/10/03 13:03:50;;;;;;;7.57;3.70;;;;;;;;;;4969389;28;20406;-65
2022/10/03 13:06:17;;;;;;;6.28;3.15;;;;;;;;;;4956697;28;20055;-64
2022/10/03 13:09:11;;;;;;;6.57;3.50;;;;;;;;;;4975308;28;20395;-64
2022/10/03 13:11:56;;;;;;;5.30;1.85;;;;;;;;;;4975906;28;20538;-65
2022/10/03 13:14:26;;;;;;;3.30;1.00;;;;;;;;;;4976125;28;20501;-64
2022/10/03 13:17:08;;;;;;;5.50;1.35;;;;;;;;;;4976341;28;20043;-64
2022/10/03 13:19:46;;;;;;;3.72;1.20;;;;;;;;;;4976193;28;20051;-65
2022/10/03 13:22:25;;;;;;;5.30;1.40;;;;;;;;;;4975948;28;20043;-65
2022/10/03 13:25:01;;;;;;;5.13;1.73;;;;;;;;;;4976296;28;20043;-64
2022/10/03 13:27:29;;;;;;;4.75;1.50;;;;;;;;;;4976324;28;20050;-63
2022/10/03 13:30:12;;;;;;;2.40;1.30;;;;;;;;;;4975577;28;20066;-63
2022/10/03 13:32:41;;;;;;;4.68;0.95;;;;;;;;;;4975737;28;20054;-63
2022/10/03 13:38:06;;;;;;;3.80;1.02;;;;;;;;;;4975605;28;20051;-64
2022/10/03 13:40:35;;;;;;;7.47;1.20;;;;;;;;;;4975804;28;20054;-63
2022/10/03 13:43:08;;;;;;;3.22;0.77;;;;;;;;;;4975691;28;20054;-63
2022/10/03 13:45:38;;;;;;;1.95;0.90;;;;;;;;;;4973945;28;20384;-63
2022/10/03 13:48:19;;;;;;;4.10;1.40;;;;;;;;;;4975200;28;20054;-63
2022/10/03 13:50:57;;;;;;;2.15;1.05;;;;;;;;;;4975210;28;20050;-63
2022/10/03 13:53:26;;;;;;;4.68;1.17;;;;;;;;;;4975219;28;20077;-63
2022/10/03 13:55:57;;;;;;;4.05;1.02;;;;;;;;;;4974915;28;20058;-63
2022/10/03 13:58:42;;;;;;;4.82;1.50;;;;;;;;;;4975638;28;20058;-63
2022/10/03 14:01:20;;;;;;;3.65;1.05;;;;;;;;;;4975386;28;20054;-63
2022/10/03 14:04:04;;;;;;;4.78;1.60;;;;;;;;;;4974974;28;20126;-63
2022/10/03 14:06:43;;;;;;;2.92;1.30;;;;;;;;;;4974784;28;20050;-63
2022/10/03 14:09:24;;;;;;;2.88;1.08;;;;;;;;;;4974817;28;20061;-63
2022/10/03 14:12:27;;;;;;;3.92;1.27;;;;;;;;;;4972495;28;20054;-63
2022/10/03 14:15:38;;;;;;;3.10;0.90;;;;;;;;;;4926898;29;20539;-63
2022/10/03 14:18:10;;;;;;;3.78;1.10;;;;;;;;;;4964749;28;20054;-63
2022/10/03 14:20:36;;;;;;;2.35;0.90;;;;;;;;;;4975022;28;20055;-63
2022/10/03 14:23:12;;;;;;;3.13;1.27;;;;;;;;;;4972484;28;20050;-63
2022/10/03 14:25:59;;;;;;;3.50;1.00;;;;;;;;;;4975152;28;20058;-62
2022/10/03 14:28:25;;;;;;;3.17;0.82;;;;;;;;;;4975274;28;20054;-63
2022/10/03 14:30:54;;;;;;;2.70;0.83;;;;;;;;;;4974972;28;20059;-63
2022/10/03 14:33:31;;;;;;;3.25;1.02;;;;;;;;;;4975025;28;20058;-64
2022/10/03 14:35:58;;;;;;;2.95;0.88;;;;;;;;;;4975032;28;20051;-63
2022/10/03 14:39:00;;;;;;;3.35;1.00;;;;;;;;;;4974904;28;20051;-63
2022/10/03 14:41:39;;;;;;;4.00;0.82;;;;;;;;;;4974860;28;20476;-63
2022/10/03 14:44:11;;;;;;;2.55;1.10;;;;;;;;;;4975052;28;20424;-63
2022/10/03 14:46:46;;;;;;;2.40;0.77;;;;;;;;;;4974502;28;20047;-63
2022/10/03 14:49:18;;;;;;;2.33;0.90;;;;;;;;;;4974678;28;20062;-63
2022/10/03 14:52:08;;;;;;;3.90;1.00;;;;;;;;;;4974994;28;20058;-63
2022/10/03 14:54:36;;;;;;;3.28;0.93;;;;;;;;;;4972151;28;20055;-63
2022/10/03 14:57:17;;;;;;;3.85;1.05;;;;;;;;;;4974476;28;20402;-63
2022/10/03 14:59:48;;;;;;;3.42;1.10;;;;;;;;;;4974129;28;20047;-63
2022/10/03 15:02:38;;;;;;;3.75;1.05;;;;;;;;;;4974216;28;20510;-63
2022/10/03 15:05:05;;;;;;;2.58;0.90;;;;;;;;;;4974128;28;20047;-65
2022/10/03 15:07:34;;;;;;;4.03;1.58;;;;;;;;;;4974019;28;20057;-66
2022/10/03 15:10:02;;;;;;;2.63;0.95;;;;;;;;;;4973631;28;20512;-65
2022/10/03 15:12:28;;;;;;;;;;;;;;;;;;4974258;28;20071;-65
2022/10/03 15:15:00;;;;;;;2.42;0.80;;;;;;;;;;4973101;28;19926;-65
2022/10/03 15:17:29;;;;;;;1.95;0.77;;;;;;;;;;4973322;28;20050;-66
2022/10/03 15:19:56;;;;;;;1.80;0.68;;;;;;;;;;4973630;28;20050;-66
2022/10/03 15:22:32;;;;;;;2.75;1.08;;;;;;;;;;4972877;28;20487;-66
2022/10/03 15:25:04;;;;;;;3.55;0.80;;;;;;;;;;4973758;28;20065;-65
2022/10/03 15:27:32;;;;;;;2.97;0.88;;;;;;;;;;4973688;28;20043;-65
2022/10/03 15:30:00;;;;;;;2.45;0.90;;;;;;;;;;4973076;28;20047;-66
2022/10/03 15:32:37;;;;;;;1.95;0.70;;;;;;;;;;4973440;28;20054;-66
2022/10/03 15:35:04;;;;;;;1.75;0.80;;;;;;;;;;4973055;28;20047;-65
2022/10/03 15:37:34;;;;;;;4.13;1.10;;;;;;;;;;4973535;28;20055;-65
2022/10/03 15:40:04;;;;;;;2.17;0.80;;;;;;;;;;4973463;28;20125;-66
2022/10/03 15:42:31;;;;;;;2.33;0.93;;;;;;;;;;4972947;28;20463;-65
2022/10/03 15:45:00;;;;;;;3.00;0.93;;;;;;;;;;4973045;28;20054;-66
2022/10/03 15:47:27;;;;;;;2.60;1.30;;;;;;;;;;4972794;28;20724;-65
2022/10/03 15:49:58;;;;;;;1.65;0.80;;;;;;;;;;4972866;28;20410;-66
2022/10/03 15:52:24;;;;;;;2.97;0.93;;;;;;;;;;4973187;28;20074;-65
2022/10/03 15:54:56;;;;;;;1.90;0.80;;;;;;;;;;4969660;28;20421;-66